Time;durP1;ratioP1;P1;durP2;ratioP2;P2;SDS_P1;SDS_P2;PMS_P1;PMS_P2;Temp;Humidity;BMP_temperature;BMP_pressure;BME280_temperature;BME280_humidity;BME280_pressure;Samples;Min_cycle;Max_cycle;Signal;HPM_P1;HPM_P2
2022/07/21 00:00:31;;;;;;;9.27;5.07;;;;;;;16.10;76.32;98667.47;4936296;29;20155;-81
2022/07/21 00:02:58;;;;;;;10.48;5.80;;;;;;;16.10;76.69;98667.47;4936367;29;20090;-81
2022/07/21 00:05:26;;;;;;;8.55;5.47;;;;;;;16.01;76.70;98641.50;4936419;29;20055;-81
2022/07/21 00:07:54;;;;;;;9.27;5.40;;;;;;;16.13;77.22;98662.09;4936206;29;20067;-79
2022/07/21 00:10:23;;;;;;;7.88;5.38;;;;;;;16.31;77.14;98675.47;4934989;29;20074;-80
2022/07/21 00:12:51;;;;;;;10.33;5.47;;;;;;;16.26;77.15;98674.78;4935732;29;20555;-79
2022/07/21 00:15:21;;;;;;;10.38;5.07;;;;;;;16.30;77.20;98668.47;4936713;29;20106;-79
2022/07/21 00:17:48;;;;;;;11.95;6.25;;;;;;;16.35;77.05;98677.94;4936080;29;20175;-79
2022/07/21 00:20:17;;;;;;;9.45;5.82;;;;;;;16.31;77.06;98692.13;4936223;29;20102;-80
2022/07/21 00:22:45;;;;;;;10.73;5.80;;;;;;;16.07;77.45;98648.31;4936248;29;20052;-80
2022/07/21 00:25:14;;;;;;;8.27;5.65;;;;;;;16.13;77.77;98661.22;4940726;29;20055;-79
2022/07/21 00:27:42;;;;;;;11.40;5.60;;;;;;;16.21;77.77;98674.13;4935388;29;20107;-78
2022/07/21 00:30:11;;;;;;;8.65;4.82;;;;;;;16.20;77.77;98681.16;4941066;29;20151;-81
2022/07/21 00:32:38;;;;;;;9.77;6.10;;;;;;;16.18;77.72;98680.38;4935670;29;20429;-81
2022/07/21 00:35:09;;;;;;;7.80;4.93;;;;;;;16.20;78.04;98693.44;4935700;29;21229;-80
2022/07/21 00:37:36;;;;;;;7.30;4.43;;;;;;;16.22;78.06;98684.59;4933054;29;20589;-80
2022/07/21 00:40:06;;;;;;;6.43;4.60;;;;;;;16.12;77.64;98676.19;4934866;29;20395;-81
2022/07/21 00:42:35;;;;;;;8.57;4.78;;;;;;;16.15;77.77;98693.63;4937687;29;20103;-80
2022/07/21 00:45:06;;;;;;;6.90;4.45;;;;;;;16.07;78.24;98691.31;4936878;29;20047;-79
2022/07/21 00:47:33;;;;;;;9.98;5.20;;;;;;;15.94;78.54;98674.25;4956991;28;20089;-79
2022/07/21 00:50:06;;;;;;;7.60;4.82;;;;;;;15.74;78.57;98639.00;4938398;29;20183;-81
2022/07/21 00:52:34;;;;;;;9.40;5.18;;;;;;;15.91;78.64;98658.56;4937206;29;20059;-81
2022/07/21 00:55:02;;;;;;;9.57;5.35;;;;;;;15.57;78.70;98607.09;4939254;29;20079;-80
2022/07/21 00:57:30;;;;;;;8.18;5.15;;;;;;;15.91;78.70;98671.72;4938481;29;20087;-81
2022/07/21 00:59:57;;;;;;;7.82;4.80;;;;;;;15.96;78.75;98681.19;4941691;29;20051;-79
2022/07/21 01:02:26;;;;;;;8.65;5.00;;;;;;;15.87;78.95;98673.59;4940525;29;20062;-79
2022/07/21 01:04:54;;;;;;;7.10;5.38;;;;;;;15.82;79.46;98672.91;4946210;29;20078;-79
2022/07/21 01:07:21;;;;;;;7.10;4.97;;;;;;;15.59;79.72;98626.34;4937857;29;20426;-80
2022/07/21 01:09:49;;;;;;;6.85;4.82;;;;;;;15.76;79.49;98671.34;4918524;29;20538;-80
2022/07/21 01:12:17;;;;;;;9.70;4.93;;;;;;;15.65;80.01;98660.34;4935127;29;20528;-79
2022/07/21 01:14:45;;;;;;;7.32;4.90;;;;;;;15.61;79.99;98653.47;4935392;29;20082;-81
2022/07/21 01:17:12;;;;;;;8.88;4.93;;;;;;;15.72;80.07;98679.44;4918305;29;20054;-81
2022/07/21 01:19:39;;;;;;;7.50;4.88;;;;;;;15.74;80.27;98670.59;4918412;29;20067;-80
2022/07/21 01:22:07;;;;;;;8.23;5.32;;;;;;;15.78;80.53;98660.78;4918162;29;20078;-81
2022/07/21 01:24:34;;;;;;;7.88;4.90;;;;;;;15.82;80.18;98669.44;4934500;29;20442;-80
2022/07/21 01:27:02;;;;;;;10.48;4.93;;;;;;;15.66;80.08;98630.47;4917831;29;20074;-81
2022/07/21 01:29:29;;;;;;;6.30;4.28;;;;;;;15.89;79.54;98684.94;4934887;29;20056;-81
2022/07/21 01:31:56;;;;;;;6.75;4.22;;;;;;;15.90;79.84;98689.28;4934741;29;20076;-80
2022/07/21 01:34:23;;;;;;;5.45;4.28;;;;;;;15.87;79.55;98670.09;4920358;29;20055;-78
2022/07/21 01:36:50;;;;;;;5.10;4.30;;;;;;;15.87;79.81;98681.50;4934268;29;20145;-79
2022/07/21 01:42:06;;;;;;;6.03;4.13;;;;;;;15.86;80.01;98684.22;4919839;29;20052;-82
2022/07/21 01:44:33;;;;;;;6.95;4.30;;;;;;;15.72;80.17;98655.72;4919802;29;20052;-82
2022/07/21 01:47:00;;;;;;;6.63;4.22;;;;;;;15.85;79.85;98682.47;4919717;29;20058;-79
2022/07/21 01:49:27;;;;;;;6.25;4.20;;;;;;;15.81;79.86;98672.97;4920010;29;20056;-78
2022/07/21 01:51:55;;;;;;;8.13;4.25;;;;;;;15.92;79.40;98682.19;4919680;29;20060;-79
2022/07/21 01:54:23;;;;;;;5.82;4.72;;;;;;;15.95;79.60;98682.06;4919530;29;20529;-80
2022/07/21 01:56:51;;;;;;;7.13;4.55;;;;;;;15.86;79.47;98661.34;4919895;29;20056;-79
2022/07/21 01:59:19;;;;;;;7.63;5.20;;;;;;;16.03;79.25;98684.44;4919616;29;20056;-81
2022/07/21 02:01:47;;;;;;;6.95;4.47;;;;;;;16.04;79.14;98690.56;4919552;29;20570;-80
2022/07/21 02:04:14;;;;;;;9.77;4.75;;;;;;;16.06;79.07;98678.19;4919554;29;20052;-79
2022/07/21 02:06:43;;;;;;;7.47;4.80;;;;;;;16.10;79.08;98677.16;4929988;29;20032;-79
2022/07/21 02:09:11;;;;;;;5.25;4.25;;;;;;;16.13;78.74;98664.75;4943972;29;20479;-80
2022/07/21 02:11:39;;;;;;;6.35;3.90;;;;;;;15.99;78.32;98637.22;4944531;29;20055;-79
2022/07/21 02:14:06;;;;;;;7.13;3.80;;;;;;;16.19;78.51;98666.25;4935148;29;20514;-81
2022/07/21 02:16:34;;;;;;;6.00;3.67;;;;;;;16.15;78.36;98660.28;4919901;29;20403;-81
2022/07/21 02:19:02;;;;;;;5.60;3.78;;;;;;;16.27;78.21;98661.56;4919680;29;20553;-81
2022/07/21 02:21:29;;;;;;;4.70;4.00;;;;;;;16.17;77.80;98642.63;4919846;29;20078;-81
2022/07/21 02:23:57;;;;;;;6.47;3.72;;;;;;;16.47;77.80;98678.34;4919207;29;20497;-82
2022/07/21 02:26:24;;;;;;;7.07;4.30;;;;;;;16.26;77.45;98644.03;4919248;29;20060;-83
2022/07/21 02:28:51;;;;;;;4.85;3.50;;;;;;;16.64;77.52;98688.25;4919227;29;20060;-81
2022/07/21 02:31:19;;;;;;;4.35;3.42;;;;;;;16.71;77.07;98677.41;4934808;29;20051;-79
2022/07/21 02:33:46;;;;;;;5.90;3.20;;;;;;;16.76;76.64;98683.34;4955953;29;20055;-80
2022/07/21 02:36:13;;;;;;;5.47;3.80;;;;;;;16.83;76.65;98672.56;4957528;29;20058;-80
2022/07/21 02:38:40;;;;;;;5.80;3.97;;;;;;;16.84;76.03;98672.50;4957224;29;20529;-81
2022/07/21 02:41:07;;;;;;;5.07;4.07;;;;;;;16.87;76.08;98669.75;4956973;28;20054;-81
2022/07/21 02:43:34;;;;;;;6.40;3.95;;;;;;;16.93;75.53;98676.56;4971982;28;20114;-79
2022/07/21 02:46:02;;;;;;;4.68;4.15;;;;;;;16.91;75.02;98670.47;4955863;29;20059;-80
2022/07/21 02:48:31;;;;;;;6.03;4.10;;;;;;;16.98;75.20;98679.84;4957559;29;20059;-80
2022/07/21 02:50:59;;;;;;;6.80;4.18;;;;;;;17.12;74.44;98661.66;4956815;29;20058;-80
2022/07/21 02:53:27;;;;;;;4.85;4.30;;;;;;;17.02;74.12;98633.09;4957301;29;20086;-80
2022/07/21 02:55:55;;;;;;;4.97;4.15;;;;;;;17.18;73.89;98631.50;4971841;28;20051;-80
2022/07/21 02:58:28;;;;;;;5.45;4.22;;;;;;;17.39;73.36;98664.88;4956698;29;20067;-80
2022/07/21 03:00:59;;;;;;;10.93;6.95;;;;;;;17.37;73.27;98658.81;4956449;29;20051;-80
2022/07/21 03:03:30;;;;;;;7.75;4.55;;;;;;;17.35;73.11;98673.00;4956815;29;20118;-80
2022/07/21 03:05:58;;;;;;;5.47;4.57;;;;;;;17.42;73.07;98663.88;4956518;29;20055;-79
2022/07/21 03:08:27;;;;;;;6.88;4.10;;;;;;;17.57;72.65;98662.38;4956389;29;20086;-79
2022/07/21 03:10:54;;;;;;;6.32;4.45;;;;;;;17.64;72.26;98640.06;4970554;28;20086;-80
2022/07/21 03:13:22;;;;;;;6.03;3.83;;;;;;;18.01;71.27;98663.03;4956714;29;20062;-79
2022/07/21 03:15:49;;;;;;;5.50;3.70;;;;;;;17.97;70.40;98632.41;4956458;29;20082;-79
2022/07/21 03:18:16;;;;;;;5.13;3.42;;;;;;;18.05;70.39;98634.69;4956167;29;20066;-79
2022/07/21 03:20:45;;;;;;;5.68;4.00;;;;;;;18.10;70.13;98668.84;4956484;29;20047;-80
2022/07/21 03:23:13;;;;;;;4.03;3.72;;;;;;;17.88;70.31;98635.47;4956081;29;20055;-81
2022/07/21 03:25:42;;;;;;;3.75;3.45;;;;;;;17.92;70.52;98654.69;4956666;29;20055;-78
2022/07/21 03:28:10;;;;;;;6.85;3.85;;;;;;;18.06;70.66;98669.91;4956152;29;20058;-79
2022/07/21 03:30:37;;;;;;;4.97;3.40;;;;;;;18.21;70.38;98650.69;4957280;29;20063;-81
2022/07/21 03:33:05;;;;;;;4.88;3.95;;;;;;;18.37;69.58;98650.84;4956216;29;20098;-79
2022/07/21 03:35:35;;;;;;;7.50;2.70;;;;;;;18.64;68.01;98661.84;4956325;29;20146;-79
2022/07/21 03:38:04;;;;;;;7.35;5.88;;;;;;;19.08;67.37;98660.59;4956322;29;20164;-82
2022/07/21 03:40:35;;;;;;;6.28;3.50;;;;;;;19.38;66.38;98664.34;4956505;29;20055;-79
2022/07/21 03:43:04;;;;;;;5.00;2.78;;;;;;;19.36;65.35;98642.41;4955861;29;20093;-80
2022/07/21 03:45:32;;;;;;;5.13;3.00;;;;;;;19.32;64.83;98630.25;4935689;29;20111;-80
2022/07/21 03:48:01;;;;;;;5.97;3.00;;;;;;;19.43;64.62;98619.94;4936800;29;20151;-81
2022/07/21 03:50:29;;;;;;;6.95;3.15;;;;;;;19.56;64.23;98646.63;4936598;29;20477;-82
2022/07/21 03:52:58;;;;;;;4.03;2.90;;;;;;;19.59;64.13;98654.41;4919669;29;20059;-80
2022/07/21 03:55:26;;;;;;;5.05;3.00;;;;;;;19.73;63.72;98629.03;4922201;29;20437;-80
2022/07/21 03:57:57;;;;;;;5.00;4.00;;;;;;;19.86;63.31;98650.44;4935143;29;20162;-83
2022/07/21 04:00:32;;;;;;;5.95;3.80;;;;;;;19.95;62.68;98664.03;4936094;29;20511;-82
2022/07/21 04:03:00;;;;;;;4.07;3.63;;;;;;;19.91;62.76;98662.47;4936799;29;20052;-81
2022/07/21 04:05:29;;;;;;;3.90;3.35;;;;;;;19.87;62.69;98642.38;4939084;29;20051;-79
2022/07/21 04:07:58;;;;;;;5.13;3.20;;;;;;;19.90;62.32;98649.34;4944219;29;20051;-82
2022/07/21 04:10:30;;;;;;;3.78;2.85;;;;;;;19.86;62.38;98658.38;4938419;29;20056;-79
2022/07/21 04:13:03;;;;;;;6.18;2.95;;;;;;;19.80;62.61;98652.44;4935424;29;20146;-81
2022/07/21 04:15:30;;;;;;;5.70;3.13;;;;;;;19.76;63.25;98653.56;4936524;29;20058;-79
2022/07/21 04:17:57;;;;;;;7.85;3.40;;;;;;;19.61;63.11;98652.53;4936278;29;20117;-79
2022/07/21 04:20:26;;;;;;;6.55;3.50;;;;;;;19.33;63.47;98644.34;4934312;29;20052;-79
2022/07/21 04:22:53;;;;;;;5.95;3.50;;;;;;;19.37;63.76;98665.28;4949812;29;20086;-79
2022/07/21 04:25:21;;;;;;;3.90;2.95;;;;;;;19.33;64.11;98660.22;4951115;29;20114;-82
2022/07/21 04:27:49;;;;;;;7.03;3.50;;;;;;;19.32;63.79;98663.81;4938092;29;20122;-79
2022/07/21 04:30:21;;;;;;;5.38;3.10;;;;;;;19.26;64.29;98659.69;4945286;29;20048;-82
2022/07/21 04:32:48;;;;;;;3.53;3.20;;;;;;;19.11;64.16;98642.78;4936856;29;20074;-82
2022/07/21 04:35:16;;;;;;;3.90;3.47;;;;;;;19.14;63.85;98661.16;4934986;29;20399;-80
2022/07/21 04:37:44;;;;;;;3.60;3.30;;;;;;;19.03;64.55;98666.97;4936207;29;20154;-82
2022/07/21 04:40:13;;;;;;;6.18;3.60;;;;;;;18.67;65.21;98637.91;4936090;29;20216;-80
2022/07/21 04:42:40;;;;;;;5.60;3.55;;;;;;;18.55;66.69;98676.38;4935194;29;20413;-81
2022/07/21 04:45:09;;;;;;;7.45;4.05;;;;;;;18.09;67.90;98636.28;4935502;29;20087;-83
2022/07/21 04:47:52;;;;;;;4.60;3.90;;;;;;;17.89;69.59;98675.94;4936126;29;20055;-81
2022/07/21 04:50:25;;;;;;;3.10;2.90;;;;;;;17.60;71.27;98696.56;4919448;29;20111;-81
2022/07/21 04:52:53;;;;;;;3.22;2.90;;;;;;;17.28;72.58;98659.22;4936359;29;20123;-83
2022/07/21 04:55:20;;;;;;;3.95;2.80;;;;;;;17.60;72.30;98680.72;4936387;29;20474;-85
2022/07/21 04:57:50;;;;;;;3.72;2.55;;;;;;;17.65;72.80;98677.88;4937350;29;20059;-85
2022/07/21 05:00:21;;;;;;;3.45;2.20;;;;;;;17.79;71.72;98681.63;4936211;29;20062;-83
2022/07/21 05:02:50;;;;;;;3.05;2.17;;;;;;;17.69;72.11;98650.41;4936048;29;20056;-83
2022/07/21 05:05:18;;;;;;;2.60;2.40;;;;;;;17.90;71.66;98681.16;4935097;29;20063;-82
2022/07/21 05:07:45;;;;;;;3.42;2.67;;;;;;;18.05;72.46;98671.69;4935722;29;20295;-79
2022/07/21 05:10:14;;;;;;;3.70;2.72;;;;;;;18.29;71.33;98682.91;4935436;29;20055;-83
2022/07/21 05:12:45;;;;;;;3.55;2.85;;;;;;;18.54;71.12;98671.16;4935980;29;20060;-83
2022/07/21 05:15:13;;;;;;;2.88;2.35;;;;;;;18.68;69.92;98676.63;4935679;29;20059;-84
2022/07/21 05:17:41;;;;;;;5.50;2.80;;;;;;;18.81;71.33;98684.88;4937689;29;20123;-83
2022/07/21 05:20:10;;;;;;;4.03;2.97;;;;;;;18.98;70.58;98684.03;4935424;29;20052;-79
2022/07/21 05:22:38;;;;;;;16.00;4.07;;;;;;;19.02;70.99;98675.88;4937249;29;20052;-82
2022/07/21 05:25:06;;;;;;;11.90;3.70;;;;;;;18.98;69.82;98658.44;4920595;29;20548;-80
2022/07/21 05:27:34;;;;;;;3.95;3.60;;;;;;;18.68;69.09;98618.44;4935788;29;20518;-80
2022/07/21 05:30:02;;;;;;;29.85;5.72;;;;;;;19.00;69.40;98672.44;4934066;29;20106;-80
2022/07/21 05:32:29;;;;;;;5.95;4.05;;;;;;;19.33;69.23;98673.47;4918231;29;20421;-81
2022/07/21 05:34:57;;;;;;;8.70;4.80;;;;;;;19.59;66.87;98666.81;4950531;29;20087;-78
2022/07/21 05:37:25;;;;;;;6.72;4.60;;;;;;;19.50;66.56;98680.53;4936403;29;20118;-81
2022/07/21 05:39:52;;;;;;;6.00;4.88;;;;;;;19.39;67.23;98681.09;4935697;29;20086;-81
2022/07/21 05:42:19;;;;;;;14.27;5.18;;;;;;;19.64;66.95;98680.69;4934932;29;20457;-81
2022/07/21 05:44:47;;;;;;;6.72;4.65;;;;;;;20.04;65.19;98644.97;4935217;29;20060;-81
2022/07/21 05:47:14;;;;;;;8.00;4.90;;;;;;;20.97;63.44;98682.25;4935515;29;20051;-80
2022/07/21 05:49:42;;;;;;;13.90;5.60;;;;;;;21.60;61.58;98673.28;4935050;29;20146;-83
2022/07/21 05:52:09;;;;;;;6.78;5.40;;;;;;;22.12;59.60;98656.75;4934995;29;20051;-82
2022/07/21 05:54:36;;;;;;;7.72;5.93;;;;;;;22.54;58.35;98670.06;4934959;29;20058;-84
2022/07/21 05:57:04;;;;;;;13.18;5.70;;;;;;;22.70;57.11;98676.13;4935204;29;20442;-84
2022/07/21 05:59:32;;;;;;;11.43;5.38;;;;;;;22.78;56.33;98664.97;4935457;29;20500;-82
2022/07/21 06:01:59;;;;;;;14.48;5.20;;;;;;;22.85;56.10;98660.97;4942131;29;20125;-82
2022/07/21 06:04:28;;;;;;;6.95;4.32;;;;;;;22.69;55.81;98658.44;4944422;29;20114;-83
2022/07/21 06:06:55;;;;;;;5.72;4.57;;;;;;;22.65;55.91;98649.81;4943185;29;20079;-82
2022/07/21 06:09:22;;;;;;;4.70;3.67;;;;;;;22.62;55.51;98673.09;4944357;29;20141;-82
2022/07/21 06:11:52;;;;;;;;;;;;;;;22.45;57.38;98676.84;4913202;29;20143;-83
2022/07/21 06:14:20;;;;;;;15.60;4.72;;;;;;;22.42;55.45;98650.44;4963314;28;19977;-83
2022/07/21 06:16:49;;;;;;;11.73;3.78;;;;;;;22.57;54.93;98676.06;4955568;28;20523;-86
2022/07/21 06:19:20;;;;;;;5.18;4.15;;;;;;;22.37;55.68;98671.16;4948254;29;20066;-84
2022/07/21 06:21:49;;;;;;;5.83;4.10;;;;;;;21.90;56.28;98625.34;4964316;28;20061;-83
2022/07/21 06:24:16;;;;;;;4.43;3.60;;;;;;;21.94;56.59;98657.88;4947615;29;20054;-83
2022/07/21 06:26:43;;;;;;;4.07;3.67;;;;;;;22.00;56.83;98681.44;4951701;29;20528;-83
2022/07/21 06:29:10;;;;;;;4.63;4.22;;;;;;;21.80;57.73;98698.63;4940027;29;20519;-86
2022/07/21 06:31:39;;;;;;;6.43;4.10;;;;;;;21.44;58.49;98690.09;4972349;28;20082;-82
2022/07/21 06:34:06;;;;;;;5.55;3.60;;;;;;;21.25;58.86;98689.47;4939963;29;20059;-79
2022/07/21 06:36:34;;;;;;;4.00;3.60;;;;;;;20.93;60.00;98708.13;4956997;29;20051;-80
2022/07/21 06:39:01;;;;;;;3.38;3.08;;;;;;;20.70;60.42;98706.78;4957243;29;20501;-81
2022/07/21 06:41:29;;;;;;;2.83;2.42;;;;;;;20.56;59.94;98710.16;4957162;29;20069;-80
2022/07/21 06:43:56;;;;;;;3.05;2.83;;;;;;;20.41;60.39;98674.78;4957440;29;20062;-80
2022/07/21 06:46:24;;;;;;;4.65;2.40;;;;;;;20.59;59.55;98698.59;4956585;29;20437;-78
2022/07/21 06:48:51;;;;;;;2.20;2.10;;;;;;;20.89;58.74;98722.53;4956996;29;20540;-82
2022/07/21 06:51:18;;;;;;;2.72;2.30;;;;;;;20.92;59.09;98727.66;4957392;29;20114;-78
2022/07/21 06:53:45;;;;;;;3.80;2.35;;;;;;;20.89;59.17;98722.53;4958690;29;20420;-78
2022/07/21 06:56:12;;;;;;;3.13;2.20;;;;;;;20.59;59.35;98720.66;4956739;29;20052;-80
2022/07/21 06:58:39;;;;;;;2.28;2.15;;;;;;;20.13;60.28;98715.16;4960525;29;20075;-78
2022/07/21 07:01:16;;;;;;;2.90;2.20;;;;;;;19.88;61.46;98722.75;4958120;29;20079;-79
2022/07/21 07:03:45;;;;;;;2.55;2.28;;;;;;;19.56;62.16;98715.50;4944405;29;20410;-80
2022/07/21 07:06:14;;;;;;;2.10;1.97;;;;;;;19.43;62.88;98717.91;4921157;29;20059;-81
2022/07/21 07:08:41;;;;;;;2.78;2.10;;;;;;;19.49;63.43;98735.31;4939685;29;20055;-81
2022/07/21 07:11:19;;;;;;;2.30;2.20;;;;;;;19.31;64.60;98744.16;4951436;29;20118;-81
2022/07/21 07:13:47;;;;;;;3.10;2.17;;;;;;;19.27;65.45;98754.03;4947628;29;20054;-80
2022/07/21 07:16:25;;;;;;;2.88;2.55;;;;;;;19.28;65.75;98739.03;4947252;29;20505;-80
2022/07/21 07:18:53;;;;;;;2.17;2.00;;;;;;;19.62;64.87;98749.63;4946029;29;20086;-81
2022/07/21 07:21:23;;;;;;;2.47;2.20;;;;;;;20.01;62.05;98705.25;4945408;29;20047;-79
2022/07/21 07:23:50;;;;;;;2.67;2.37;;;;;;;20.36;61.68;98734.31;4947106;29;20047;-81
2022/07/21 07:26:19;;;;;;;3.53;2.33;;;;;;;20.68;61.05;98745.81;4946496;29;20290;-83
2022/07/21 07:28:46;;;;;;;2.47;2.28;;;;;;;20.92;60.46;98753.34;4945104;29;20056;-81
2022/07/21 07:31:13;;;;;;;2.25;2.15;;;;;;;21.02;59.48;98720.03;4929416;29;20083;-80
2022/07/21 07:33:40;;;;;;;2.38;2.17;;;;;;;21.09;58.96;98700.13;4946815;29;20059;-81
2022/07/21 07:36:11;;;;;;;1.77;1.67;;;;;;;21.24;58.75;98759.47;4942474;29;20075;-81
2022/07/21 07:38:39;;;;;;;2.20;1.88;;;;;;;20.64;59.82;98741.63;4939968;29;20500;-78
2022/07/21 07:41:07;;;;;;;2.83;1.75;;;;;;;20.37;59.79;98730.69;4935934;29;20103;-79
2022/07/21 07:43:35;;;;;;;1.70;1.60;;;;;;;20.58;59.88;98737.50;4936444;29;20051;-78
2022/07/21 07:46:04;;;;;;;2.00;1.90;;;;;;;21.26;58.87;98763.72;4936230;29;20051;-79
2022/07/21 07:48:34;;;;;;;1.85;1.70;;;;;;;21.79;57.57;98764.22;4938908;29;20056;-80
2022/07/21 07:51:01;;;;;;;2.30;2.10;;;;;;;21.51;57.89;98772.97;4943042;29;20074;-78
2022/07/21 07:53:29;;;;;;;1.95;1.80;;;;;;;21.35;58.19;98769.47;4944508;29;20400;-79
2022/07/21 07:55:58;;;;;;;2.50;2.05;;;;;;;21.39;58.10;98769.19;4944650;29;20082;-81
2022/07/21 07:58:27;;;;;;;1.52;1.50;;;;;;;21.50;57.50;98775.72;4946384;29;20572;-80
2022/07/21 08:00:53;;;;;;;1.60;1.50;;;;;;;21.59;56.69;98769.84;4946209;29;20074;-81
2022/07/21 08:03:24;;;;;;;1.98;1.35;;;;;;;21.75;55.78;98753.88;4946049;29;20047;-81
2022/07/21 08:06:03;;;;;;;1.60;1.50;;;;;;;22.09;55.08;98765.94;4946010;29;20138;-81
2022/07/21 08:08:32;;;;;;;1.30;1.23;;;;;;;21.84;55.21;98761.28;4948223;29;20055;-79
2022/07/21 08:11:00;;;;;;;1.48;1.38;;;;;;;22.23;54.71;98784.59;4948064;29;20429;-79
2022/07/21 08:13:27;;;;;;;1.02;1.00;;;;;;;22.17;52.99;98768.13;4944294;29;20056;-79
2022/07/21 08:15:55;;;;;;;1.15;1.15;;;;;;;21.85;53.20;98733.72;4945774;29;20059;-79
2022/07/21 08:18:23;;;;;;;1.05;1.05;;;;;;;21.82;53.78;98761.38;4927027;29;20056;-79
2022/07/21 08:20:50;;;;;;;1.40;1.30;;;;;;;21.98;54.09;98779.88;4946316;29;20153;-77
2022/07/21 08:23:18;;;;;;;1.13;1.00;;;;;;;22.62;52.37;98767.09;4944634;29;20067;-80
2022/07/21 08:25:46;;;;;;;1.10;1.10;;;;;;;23.00;51.72;98766.47;4946137;29;20078;-79
2022/07/21 08:28:14;;;;;;;;;;;;;;;22.67;52.19;98780.97;4930519;29;20048;-80
2022/07/21 08:30:41;;;;;;;0.88;0.88;;;;;;;22.52;50.35;98770.44;4946142;29;19926;-79
2022/07/21 08:33:08;;;;;;;1.27;1.17;;;;;;;22.32;51.47;98788.50;4942869;29;20513;-81
2022/07/21 08:35:36;;;;;;;1.10;1.05;;;;;;;22.18;51.75;98756.56;4946841;29;20146;-80
2022/07/21 08:38:06;;;;;;;1.00;1.00;;;;;;;22.20;51.39;98781.22;4932616;28;20426;-82
2022/07/21 08:40:34;;;;;;;;;;;;;;;21.79;52.54;98790.78;4961547;29;20087;-81
2022/07/21 08:43:02;;;;;;;1.10;1.10;;;;;;;21.88;50.52;98792.91;4955448;29;19973;-83
2022/07/21 08:45:30;;;;;;;1.45;1.35;;;;;;;21.40;49.33;98778.88;4969219;28;20087;-80
2022/07/21 08:47:59;;;;;;;1.30;1.30;;;;;;;21.64;48.77;98810.31;4934582;29;20126;-82
2022/07/21 08:50:30;;;;;;;1.25;1.15;;;;;;;22.04;49.04;98797.28;4943832;29;20296;-82
2022/07/21 08:52:57;;;;;;;1.35;1.25;;;;;;;22.36;48.71;98789.16;4944339;29;20138;-80
2022/07/21 08:55:30;;;;;;;1.52;1.40;;;;;;;22.68;48.19;98773.84;4955492;29;20105;-82
2022/07/21 08:57:59;;;;;;;1.52;1.42;;;;;;;22.99;47.51;98810.00;4954684;29;20051;-83
2022/07/21 09:00:26;;;;;;;1.85;1.75;;;;;;;22.75;48.01;98804.44;4954728;29;20589;-85
2022/07/21 09:03:17;;;;;;;3.35;1.30;;;;;;;22.97;48.51;98801.25;4954243;29;20051;-79
2022/07/21 09:06:11;;;;;;;1.50;1.40;;;;;;;23.05;48.23;98820.28;4955054;29;20059;-82
2022/07/21 09:08:49;;;;;;;1.67;1.58;;;;;;;22.81;48.30;98804.03;4954283;29;20539;-81
2022/07/21 09:11:25;;;;;;;1.73;1.60;;;;;;;22.44;48.18;98785.09;4954597;29;20055;-79
2022/07/21 09:14:22;;;;;;;1.77;1.65;;;;;;;22.46;48.70;98838.22;4954828;29;20082;-82
2022/07/21 09:16:53;;;;;;;1.50;1.40;;;;;;;22.49;47.85;98836.19;4929229;29;20055;-79
2022/07/21 09:19:25;;;;;;;3.10;1.83;;;;;;;22.76;47.35;98824.78;4936573;29;20063;-79
2022/07/21 09:21:56;;;;;;;1.58;1.50;;;;;;;22.87;46.27;98816.97;4948581;29;20059;-81
2022/07/21 09:24:29;;;;;;;4.05;1.60;;;;;;;23.12;45.96;98820.75;4942167;29;20466;-79
2022/07/21 09:27:12;;;;;;;3.25;1.70;;;;;;;23.17;45.45;98820.47;4937892;29;20056;-82
2022/07/21 09:29:59;;;;;;;1.98;1.88;;;;;;;23.50;45.21;98812.06;4942897;29;20051;-79
2022/07/21 09:32:30;;;;;;;1.90;1.80;;;;;;;24.04;44.44;98827.97;4940151;29;20055;-79
2022/07/21 09:35:06;;;;;;;1.98;1.88;;;;;;;23.79;44.08;98812.81;4935611;29;20079;-80
2022/07/21 09:37:39;;;;;;;2.72;1.90;;;;;;;23.54;45.01;98828.69;4934814;29;20506;-82
2022/07/21 09:40:09;;;;;;;3.63;2.20;;;;;;;23.22;45.39;98845.00;4935281;29;20067;-81
2022/07/21 09:42:49;;;;;;;2.05;1.90;;;;;;;22.79;45.33;98824.59;4934172;29;20047;-81
2022/07/21 09:45:17;;;;;;;;;;;;;;;22.26;46.77;98840.28;4936529;29;20069;-82
2022/07/21 09:47:46;;;;;;;2.10;1.90;;;;;;;22.19;48.19;98856.66;4934970;29;19926;-82
2022/07/21 09:50:16;;;;;;;3.00;2.05;;;;;;;21.71;49.78;98855.97;4917880;29;20083;-82
2022/07/21 09:52:54;;;;;;;2.05;1.95;;;;;;;21.46;51.05;98870.66;4937730;29;20087;-82
2022/07/21 09:55:23;;;;;;;3.15;2.30;;;;;;;21.35;51.51;98876.56;4938034;29;20060;-80
2022/07/21 09:57:51;;;;;;;5.00;2.25;;;;;;;21.08;52.06;98823.22;4936642;29;20154;-81
2022/07/21 10:00:19;;;;;;;3.45;2.13;;;;;;;21.26;52.37;98867.31;4937543;29;20433;-80
2022/07/21 10:02:48;;;;;;;3.25;2.05;;;;;;;21.38;52.51;98862.25;4937773;29;20054;-82
2022/07/21 10:05:20;;;;;;;3.63;2.37;;;;;;;21.51;52.41;98881.03;4937408;29;20142;-78
2022/07/21 10:07:53;;;;;;;3.00;2.10;;;;;;;21.51;52.07;98881.03;4937936;29;20055;-81
2022/07/21 10:10:20;;;;;;;3.25;2.00;;;;;;;21.58;51.39;98869.13;4937935;29;20051;-81
2022/07/21 10:12:49;;;;;;;5.18;2.47;;;;;;;21.64;51.98;98860.81;4920898;29;20055;-81
2022/07/21 10:15:17;;;;;;;3.33;2.78;;;;;;;22.01;50.66;98877.25;4939088;29;20068;-82
2022/07/21 10:17:49;;;;;;;5.63;2.80;;;;;;;22.07;50.18;98892.84;4937643;29;20159;-79
2022/07/21 10:20:23;;;;;;;4.20;2.55;;;;;;;21.79;49.65;98832.44;4937537;29;20121;-82
2022/07/21 10:23:15;;;;;;;2.00;1.90;;;;;;;22.12;48.37;98873.94;4937031;29;20059;-79
2022/07/21 10:25:48;;;;;;;3.05;2.00;;;;;;;21.96;48.17;98852.72;4937250;29;20171;-80
2022/07/21 10:28:20;;;;;;;2.20;2.10;;;;;;;22.03;47.70;98862.06;4937669;29;20059;-81
2022/07/21 10:30:54;;;;;;;2.10;2.00;;;;;;;22.49;46.71;98870.78;4938453;29;20058;-80
2022/07/21 10:33:44;;;;;;;1.75;1.38;;;;;;;22.67;45.78;98882.13;4937936;29;20058;-81
2022/07/21 10:36:33;;;;;;;1.85;1.75;;;;;;;22.81;45.00;98880.41;4943282;29;20047;-79
2022/07/21 10:39:07;;;;;;;2.50;1.50;;;;;;;22.85;43.60;98879.25;4954017;29;20424;-79
2022/07/21 10:41:40;;;;;;;2.13;1.38;;;;;;;23.10;43.99;98862.59;4971990;28;20059;-81
2022/07/21 10:44:28;;;;;;;3.20;1.40;;;;;;;23.25;43.19;98893.59;4938771;29;20058;-79
2022/07/21 10:47:04;;;;;;;1.38;1.27;;;;;;;23.06;44.01;98883.25;4936729;29;20481;-79
2022/07/21 10:49:48;;;;;;;5.97;1.65;;;;;;;22.86;45.54;98900.44;4938019;29;20085;-81
2022/07/21 10:52:37;;;;;;;1.55;1.45;;;;;;;22.68;46.73;98890.94;4937857;29;20059;-78
2022/07/21 10:55:13;;;;;;;3.72;1.63;;;;;;;22.69;46.59;98909.50;4938251;29;20088;-79
2022/07/21 10:57:42;;;;;;;2.38;1.70;;;;;;;22.48;46.40;98877.06;4937576;29;20147;-79
2022/07/21 11:00:29;;;;;;;1.48;1.38;;;;;;;22.19;46.41;98875.28;4937683;29;20115;-80
2022/07/21 11:03:17;;;;;;;2.53;1.70;;;;;;;22.28;47.10;98912.88;4936148;29;20056;-80
2022/07/21 11:06:06;;;;;;;2.15;1.45;;;;;;;22.54;46.50;98944.16;4937519;29;20098;-80
2022/07/21 11:08:43;;;;;;;1.83;1.73;;;;;;;22.58;46.72;98929.72;4922521;29;20055;-80
2022/07/21 11:11:13;;;;;;;2.30;2.10;;;;;;;22.69;46.78;98908.63;4936198;29;20508;-78
2022/07/21 11:14:04;;;;;;;2.50;1.85;;;;;;;22.91;45.94;98977.41;4937282;29;20146;-80
2022/07/21 11:16:52;;;;;;;3.10;1.50;;;;;;;22.49;46.19;98944.44;4919867;29;20086;-79
2022/07/21 11:19:29;;;;;;;1.40;1.30;;;;;;;22.27;46.32;98947.53;4942439;29;20118;-78
2022/07/21 11:22:14;;;;;;;1.80;1.70;;;;;;;22.10;47.18;98983.06;4951335;29;20055;-81
2022/07/21 11:24:44;;;;;;;1.88;1.77;;;;;;;22.09;47.61;98944.09;4956264;29;20520;-79
2022/07/21 11:27:17;;;;;;;2.63;1.77;;;;;;;22.46;47.49;98947.31;4965206;28;20047;-81
2022/07/21 11:29:53;;;;;;;4.40;1.80;;;;;;;22.68;46.77;98942.38;4944640;29;20508;-82
2022/07/21 11:32:23;;;;;;;1.77;1.67;;;;;;;22.97;45.97;98941.53;4957787;28;20051;-80
2022/07/21 11:34:55;;;;;;;4.82;1.70;;;;;;;22.91;46.16;98932.13;4943717;29;20087;-82
2022/07/21 11:37:37;;;;;;;2.03;1.50;;;;;;;22.86;46.45;98942.19;4937809;29;20062;-82
2022/07/21 11:40:08;;;;;;;2.33;1.70;;;;;;;22.81;46.52;98936.31;4937278;29;20163;-82
2022/07/21 11:42:37;;;;;;;2.45;1.85;;;;;;;22.93;46.47;98950.66;4938103;29;20063;-81
2022/07/21 11:45:06;;;;;;;1.52;1.42;;;;;;;22.94;46.58;98942.56;4937728;29;20083;-81
2022/07/21 11:47:34;;;;;;;2.28;1.80;;;;;;;22.79;46.81;98962.16;4955808;28;20043;-78
2022/07/21 11:50:06;;;;;;;3.83;2.03;;;;;;;22.37;47.21;98961.13;4956648;29;20055;-76